createdAt,value
2023-01-27T00:01:04.583Z,20.52
2023-01-27T00:03:31.450Z,20.27
2023-01-27T00:06:01.097Z,20.90
2023-01-27T00:08:29.544Z,21.85
2023-01-27T00:11:18.818Z,22.42
2023-01-27T00:13:45.711Z,21.83
2023-01-27T00:16:12.605Z,20.88
2023-01-27T00:18:39.509Z,22.42
2023-01-27T00:21:38.423Z,20.25
2023-01-27T00:24:24.269Z,20.70
2023-01-27T00:26:51.127Z,17.95
2023-01-27T00:29:17.905Z,20.38
2023-01-27T00:32:03.130Z,22.05
2023-01-27T00:34:29.935Z,21.27
2023-01-27T00:36:56.784Z,22.42
2023-01-27T00:39:23.649Z,21.88
2023-01-27T00:41:50.564Z,21.45
2023-01-27T00:44:17.538Z,21.50
2023-01-27T00:46:44.421Z,22.83
2023-01-27T00:49:13.372Z,21.92
2023-01-27T00:51:40.882Z,21.55
2023-01-27T00:54:07.962Z,22.33
2023-01-27T00:56:35.068Z,23.52
2023-01-27T00:59:01.963Z,23.23
2023-01-27T01:01:29.413Z,23.45
2023-01-27T01:03:58.246Z,21.40
2023-01-27T01:06:25.201Z,21.98
2023-01-27T01:08:52.473Z,22.73
2023-01-27T01:11:21.521Z,23.60
2023-01-27T01:13:48.741Z,22.65
2023-01-27T01:16:19.592Z,24.48
2023-01-27T01:18:47.240Z,22.70
2023-01-27T01:21:15.082Z,21.88
2023-01-27T01:23:44.517Z,21.88
2023-01-27T01:26:14.241Z,23.52
2023-01-27T01:28:41.085Z,24.25
2023-01-27T01:31:11.796Z,22.23
2023-01-27T01:33:39.230Z,22.58
2023-01-27T01:36:08.721Z,23.23
2023-01-27T01:38:35.535Z,20.65
2023-01-27T01:41:02.715Z,22.58
2023-01-27T01:43:29.484Z,20.73
2023-01-27T01:46:00.880Z,22.33
2023-01-27T01:48:35.270Z,23.05
2023-01-27T01:51:35.384Z,21.73
2023-01-27T01:54:19.731Z,22.60
2023-01-27T01:57:06.994Z,23.88
2023-01-27T01:59:47.383Z,20.98
2023-01-27T02:02:18.575Z,22.25
2023-01-27T02:04:59.199Z,22.60
2023-01-27T02:07:35.752Z,22.33
2023-01-27T02:10:03.885Z,21.83
2023-01-27T02:14:59.057Z,21.60
2023-01-27T02:17:25.975Z,21.77
2023-01-27T02:20:23.799Z,21.55
2023-01-27T02:23:16.467Z,21.40
2023-01-27T02:26:02.552Z,15.80
2023-01-27T02:28:31.093Z,19.98
2023-01-27T02:30:58.904Z,21.60
2023-01-27T02:33:25.837Z,21.95
2023-01-27T02:36:10.721Z,20.40
2023-01-27T02:38:50.878Z,20.38
2023-01-27T02:41:29.520Z,20.50
2023-01-27T02:43:56.360Z,20.05
2023-01-27T02:46:23.692Z,20.15
2023-01-27T02:48:50.548Z,19.88
2023-01-27T02:51:17.606Z,19.10
2023-01-27T02:53:44.707Z,18.95
2023-01-27T02:56:11.518Z,18.30
2023-01-27T02:58:38.465Z,19.08
2023-01-27T03:01:05.561Z,19.67
2023-01-27T03:03:32.331Z,20.35
2023-01-27T03:05:59.625Z,19.92
2023-01-27T03:08:26.437Z,20.27
2023-01-27T03:10:55.717Z,18.75
2023-01-27T03:13:24.280Z,18.85
2023-01-27T03:16:11.068Z,20.17
2023-01-27T03:18:39.055Z,18.35
2023-01-27T03:21:07.752Z,18.17
2023-01-27T03:23:34.926Z,19.40
2023-01-27T03:26:06.777Z,19.50
2023-01-27T03:28:33.887Z,18.92
2023-01-27T03:31:02.843Z,20.38
2023-01-27T03:33:30.029Z,18.73
2023-01-27T03:36:15.420Z,19.15
2023-01-27T03:39:00.629Z,19.40
2023-01-27T03:41:45.872Z,18.73
2023-01-27T03:44:31.435Z,18.05
2023-01-27T03:46:58.221Z,18.38
2023-01-27T03:49:25.001Z,18.13
2023-01-27T03:51:51.850Z,18.08
2023-01-27T03:54:19.579Z,18.75
2023-01-27T03:56:47.873Z,19.38
2023-01-27T03:59:15.132Z,18.83
2023-01-27T04:01:43.714Z,17.90
2023-01-27T04:04:30.123Z,18.35
2023-01-27T04:07:02.674Z,18.75
2023-01-27T04:09:33.904Z,16.40
2023-01-27T04:12:04.619Z,13.90
2023-01-27T04:14:37.709Z,14.25
2023-01-27T04:17:18.115Z,12.82
2023-01-27T04:19:46.393Z,15.25
2023-01-27T04:22:15.765Z,15.38
2023-01-27T04:24:43.027Z,16.42
2023-01-27T04:27:14.143Z,14.57
2023-01-27T04:29:42.537Z,16.50
2023-01-27T04:32:12.237Z,17.27
2023-01-27T04:34:40.346Z,15.52
2023-01-27T04:37:09.553Z,15.90
2023-01-27T04:39:36.959Z,17.88
2023-01-27T04:42:04.189Z,17.63
2023-01-27T04:44:31.337Z,18.52
2023-01-27T04:46:58.179Z,17.30
2023-01-27T04:49:26.716Z,17.55
2023-01-27T04:51:54.592Z,18.38
2023-01-27T04:54:21.583Z,18.17
2023-01-27T04:56:58.873Z,19.02
2023-01-27T04:59:26.063Z,18.13
2023-01-27T05:01:52.951Z,18.40
2023-01-27T05:04:19.871Z,18.40
2023-01-27T05:06:46.639Z,20.25
2023-01-27T05:09:13.471Z,20.00
2023-01-27T05:11:40.272Z,19.63
2023-01-27T05:14:07.076Z,19.95
2023-01-27T05:16:33.978Z,19.15
2023-01-27T05:19:02.042Z,19.67
2023-01-27T05:21:28.984Z,18.73
2023-01-27T05:23:55.818Z,19.92
2023-01-27T05:26:27.885Z,18.83
2023-01-27T05:28:58.365Z,14.17
2023-01-27T05:31:29.413Z,18.23
2023-01-27T05:33:59.066Z,19.85
2023-01-27T05:36:27.075Z,17.83
2023-01-27T05:38:55.283Z,18.33
2023-01-27T05:41:22.853Z,17.88
2023-01-27T05:43:55.069Z,18.40
2023-01-27T05:46:29.194Z,14.93
2023-01-27T05:48:59.815Z,18.92
2023-01-27T05:51:30.991Z,18.35
2023-01-27T05:53:57.806Z,18.50
2023-01-27T05:56:26.538Z,19.30
2023-01-27T05:58:57.989Z,19.17
2023-01-27T06:01:28.767Z,19.60
2023-01-27T06:03:55.915Z,20.83
2023-01-27T06:06:25.316Z,19.45
2023-01-27T06:08:52.703Z,20.05
2023-01-27T06:11:21.393Z,19.52
2023-01-27T06:13:48.897Z,20.48
2023-01-27T06:16:18.310Z,20.00
2023-01-27T06:18:45.885Z,21.17
2023-01-27T06:21:14.700Z,20.20
2023-01-27T06:23:41.945Z,20.08
2023-01-27T06:26:16.248Z,22.33
2023-01-27T06:28:43.795Z,19.23
2023-01-27T06:31:18.137Z,20.98
2023-01-27T06:33:45.238Z,19.88
2023-01-27T06:36:15.498Z,20.55
2023-01-27T06:38:42.488Z,22.65
2023-01-27T06:41:09.386Z,20.45
2023-01-27T06:43:36.207Z,23.02
2023-01-27T06:46:05.745Z,21.02
2023-01-27T06:48:33.813Z,18.88
2023-01-27T06:51:01.086Z,19.42
2023-01-27T06:53:27.902Z,20.08
2023-01-27T06:56:00.160Z,19.83
2023-01-27T06:58:27.791Z,16.85
2023-01-27T07:00:54.785Z,20.38
2023-01-27T07:03:21.848Z,21.48
2023-01-27T07:05:48.697Z,20.92
2023-01-27T07:08:15.590Z,18.95
2023-01-27T07:10:42.452Z,19.88
2023-01-27T07:13:13.015Z,19.42
2023-01-27T07:15:39.919Z,21.48
2023-01-27T07:18:07.180Z,21.48
2023-01-27T07:20:34.465Z,21.60
2023-01-27T07:23:05.892Z,25.25
2023-01-27T07:25:34.896Z,23.05
2023-01-27T07:28:03.231Z,26.75
2023-01-27T07:30:30.678Z,30.73
2023-01-27T07:33:11.196Z,26.50
2023-01-27T07:35:39.602Z,25.00
2023-01-27T07:38:07.462Z,23.90
2023-01-27T07:40:36.006Z,23.25
2023-01-27T07:43:03.900Z,17.95
2023-01-27T07:45:30.998Z,14.63
2023-01-27T07:48:03.146Z,14.65
2023-01-27T07:50:30.591Z,12.40
2023-01-27T07:53:05.490Z,15.10
2023-01-27T07:55:33.424Z,14.20
2023-01-27T07:58:00.575Z,14.55
2023-01-27T08:00:28.956Z,14.43
2023-01-27T08:02:57.447Z,13.50
2023-01-27T08:05:25.211Z,13.35
2023-01-27T08:07:54.014Z,12.40
2023-01-27T08:10:22.108Z,13.77
2023-01-27T08:12:49.009Z,12.80
2023-01-27T08:15:18.460Z,13.25
2023-01-27T08:17:56.834Z,13.02
2023-01-27T08:20:27.174Z,13.48
2023-01-27T08:22:54.196Z,14.20
2023-01-27T08:25:21.828Z,13.93
2023-01-27T08:27:53.977Z,17.17
2023-01-27T08:30:21.526Z,17.90
2023-01-27T08:32:48.608Z,15.50
2023-01-27T08:35:15.533Z,12.85
2023-01-27T08:37:42.453Z,13.75
2023-01-27T08:40:10.566Z,14.23
2023-01-27T08:42:37.521Z,13.82
2023-01-27T08:45:04.902Z,12.75
2023-01-27T08:47:31.646Z,12.25
2023-01-27T08:49:58.479Z,11.63
2023-01-27T08:52:27.577Z,12.95
2023-01-27T08:54:54.367Z,12.70
2023-01-27T08:57:21.157Z,13.07
2023-01-27T08:59:47.896Z,12.35
2023-01-27T09:02:14.782Z,14.15
2023-01-27T09:04:44.221Z,12.85
2023-01-27T09:07:11.640Z,14.98
2023-01-27T09:09:38.468Z,13.93
2023-01-27T09:12:05.348Z,14.07
2023-01-27T09:14:32.186Z,15.02
2023-01-27T09:16:58.997Z,14.25
2023-01-27T09:19:25.815Z,15.30
2023-01-27T09:21:52.602Z,14.38
2023-01-27T09:24:20.521Z,14.52
2023-01-27T09:26:47.406Z,14.07
2023-01-27T09:29:14.332Z,15.93
2023-01-27T09:31:41.317Z,15.20
2023-01-27T09:34:08.183Z,14.50
2023-01-27T09:36:41.805Z,15.82
2023-01-27T09:39:09.775Z,14.50
2023-01-27T09:42:22.589Z,12.52
2023-01-27T09:45:20.451Z,12.73
2023-01-27T09:48:02.173Z,12.90
2023-01-27T09:51:08.505Z,12.60
2023-01-27T09:54:21.559Z,13.05
2023-01-27T09:57:06.928Z,14.13
2023-01-27T10:00:29.331Z,14.13
2023-01-27T10:03:17.534Z,13.52
2023-01-27T10:06:06.435Z,13.63
2023-01-27T10:09:03.432Z,13.70
2023-01-27T10:11:54.069Z,13.52
2023-01-27T10:14:42.349Z,13.30
2023-01-27T10:17:42.379Z,14.02
2023-01-27T10:20:46.618Z,13.63
2023-01-27T10:23:37.260Z,13.15
2023-01-27T10:26:43.027Z,14.10
2023-01-27T10:29:17.559Z,14.40
2023-01-27T10:32:02.490Z,15.18
2023-01-27T10:34:38.724Z,15.00
2023-01-27T10:37:20.917Z,14.40
2023-01-27T10:39:56.536Z,13.32
2023-01-27T10:42:38.129Z,13.38
2023-01-27T10:45:31.046Z,13.13
2023-01-27T10:48:41.881Z,9.57
2023-01-27T10:51:28.844Z,14.18
2023-01-27T10:54:15.203Z,14.95
2023-01-27T10:56:51.812Z,24.67
2023-01-27T11:00:10.988Z,14.05
2023-01-27T11:02:59.214Z,13.57
2023-01-27T11:05:42.566Z,12.93
2023-01-27T11:08:36.036Z,13.05
2023-01-27T11:14:05.073Z,14.32
2023-01-27T11:16:38.043Z,13.23
2023-01-27T11:19:44.501Z,13.63
2023-01-27T11:22:22.864Z,13.85
2023-01-27T11:25:14.788Z,13.13
2023-01-27T11:27:57.139Z,12.65
2023-01-27T11:30:52.531Z,14.20
2023-01-27T11:33:44.233Z,15.27
2023-01-27T11:36:12.323Z,13.75
2023-01-27T11:38:39.666Z,11.40
2023-01-27T11:41:07.445Z,13.18
2023-01-27T11:43:37.140Z,15.23
2023-01-27T11:46:13.973Z,14.73
2023-01-27T11:48:50.743Z,13.57
2023-01-27T11:51:24.767Z,14.15
2023-01-27T11:54:10.996Z,13.15
2023-01-27T11:56:39.685Z,12.75
2023-01-27T11:59:18.652Z,14.75
2023-01-27T12:02:04.052Z,14.75
2023-01-27T12:05:10.122Z,12.90
2023-01-27T12:08:03.385Z,12.65
2023-01-27T12:10:40.175Z,13.50
2023-01-27T12:13:22.273Z,12.90
2023-01-27T12:16:03.861Z,14.13
2023-01-27T12:18:34.908Z,12.68
2023-01-27T12:21:08.807Z,12.82
2023-01-27T12:23:49.907Z,13.68
2023-01-27T12:26:39.629Z,13.85
2023-01-27T12:29:39.487Z,14.43
2023-01-27T12:32:17.263Z,14.38
2023-01-27T12:34:52.375Z,16.75
2023-01-27T12:37:28.983Z,13.48
2023-01-27T12:40:03.476Z,12.65
2023-01-27T12:43:13.244Z,13.45
2023-01-27T12:45:43.397Z,12.63
2023-01-27T12:48:10.742Z,12.82
2023-01-27T12:50:41.181Z,14.63
2023-01-27T12:53:17.935Z,15.10
2023-01-27T12:56:04.805Z,16.42
2023-01-27T12:58:41.140Z,16.60
2023-01-27T13:01:20.586Z,14.45
2023-01-27T13:03:55.924Z,12.63
2023-01-27T13:06:47.708Z,13.90
2023-01-27T13:09:31.887Z,14.70
2023-01-27T13:12:05.315Z,14.10
2023-01-27T13:14:40.847Z,13.80
2023-01-27T13:17:50.153Z,15.13
2023-01-27T13:20:32.982Z,16.55
2023-01-27T13:23:24.486Z,16.25
2023-01-27T13:26:08.581Z,14.88
2023-01-27T13:29:02.773Z,14.73
2023-01-27T13:31:41.938Z,13.65
2023-01-27T13:34:19.431Z,13.63
2023-01-27T13:36:57.294Z,14.27
2023-01-27T13:39:54.772Z,14.80
2023-01-27T13:43:14.193Z,17.42
2023-01-27T13:46:24.316Z,17.35
2023-01-27T13:48:55.779Z,14.02
2023-01-27T13:51:31.057Z,14.18
2023-01-27T13:54:04.768Z,17.83
2023-01-27T13:57:13.824Z,21.27
2023-01-27T14:00:44.386Z,18.88
2023-01-27T14:03:39.592Z,19.23
2023-01-27T14:06:54.537Z,16.63
2023-01-27T14:09:53.105Z,17.05
2023-01-27T14:12:46.589Z,17.60
2023-01-27T14:15:26.387Z,15.38
2023-01-27T14:18:29.170Z,16.15
2023-01-27T14:21:08.043Z,17.95
2023-01-27T14:24:02.362Z,14.50
2023-01-27T14:27:00.943Z,14.02
2023-01-27T14:29:55.408Z,14.38
2023-01-27T14:33:06.675Z,14.23
2023-01-27T14:36:06.934Z,12.40
2023-01-27T14:38:48.253Z,11.70
2023-01-27T14:41:46.155Z,13.27
2023-01-27T14:44:43.975Z,12.82
2023-01-27T14:48:18.529Z,12.52
2023-01-27T14:51:22.788Z,11.88
2023-01-27T14:54:46.061Z,12.80
2023-01-27T14:58:07.414Z,12.57
2023-01-27T15:01:08.838Z,13.48
2023-01-27T15:04:21.551Z,13.50
2023-01-27T15:07:03.727Z,14.57
2023-01-27T15:09:49.544Z,10.30
2023-01-27T15:12:37.442Z,13.35
2023-01-27T15:15:20.233Z,13.48
2023-01-27T15:18:17.218Z,16.50
2023-01-27T15:21:04.168Z,17.63
2023-01-27T15:23:47.079Z,15.80
2023-01-27T15:26:17.657Z,13.32
2023-01-27T15:28:45.774Z,20.90
2023-01-27T15:31:17.031Z,15.10
2023-01-27T15:33:53.276Z,15.05
2023-01-27T15:36:32.722Z,14.30
2023-01-27T15:39:09.745Z,14.50
2023-01-27T15:42:01.498Z,13.68
2023-01-27T15:45:01.049Z,13.13
2023-01-27T15:47:37.317Z,13.57
2023-01-27T15:50:18.901Z,13.18
2023-01-27T15:52:50.154Z,13.80
2023-01-27T15:55:34.970Z,14.52
2023-01-27T15:58:17.479Z,15.20
2023-01-27T16:00:52.904Z,19.40
2023-01-27T16:03:38.255Z,17.38
2023-01-27T16:06:19.403Z,19.90
2023-01-27T16:09:00.353Z,19.75
2023-01-27T16:11:29.834Z,19.13
2023-01-27T16:14:12.385Z,19.05
2023-01-27T16:16:44.056Z,39.08
2023-01-27T16:19:11.235Z,23.10
2023-01-27T16:21:49.068Z,27.33
2023-01-27T16:24:42.098Z,18.50
2023-01-27T16:27:52.059Z,15.23
2023-01-27T16:30:27.188Z,23.30
2023-01-27T16:33:14.886Z,32.70
2023-01-27T16:35:53.156Z,25.52
2023-01-27T16:38:28.125Z,16.67
2023-01-27T16:41:01.463Z,16.27
2023-01-27T16:43:34.780Z,17.77
2023-01-27T16:46:02.418Z,15.98
2023-01-27T16:48:45.029Z,17.05
2023-01-27T16:51:19.396Z,15.48
2023-01-27T16:53:50.011Z,15.68
2023-01-27T16:56:35.068Z,15.80
2023-01-27T16:59:09.005Z,15.13
2023-01-27T17:01:53.869Z,14.82
2023-01-27T17:04:25.394Z,15.60
2023-01-27T17:07:18.629Z,16.73
2023-01-27T17:12:40.822Z,16.52
2023-01-27T17:15:36.998Z,17.33
2023-01-27T17:18:10.208Z,16.58
2023-01-27T17:20:41.723Z,23.08
2023-01-27T17:23:32.131Z,16.13
2023-01-27T17:26:11.245Z,16.40
2023-01-27T17:28:38.856Z,17.58
2023-01-27T17:31:08.303Z,16.60
2023-01-27T17:33:37.309Z,15.38
2023-01-27T17:36:11.215Z,16.45
2023-01-27T17:38:57.445Z,17.58
2023-01-27T17:41:36.733Z,17.10
2023-01-27T17:44:14.264Z,18.95
2023-01-27T17:46:41.861Z,17.63
2023-01-27T17:49:18.008Z,17.60
2023-01-27T17:51:53.515Z,16.17
2023-01-27T17:54:35.358Z,17.08
2023-01-27T17:57:24.224Z,16.27
2023-01-27T18:00:16.907Z,16.35
2023-01-27T18:02:58.232Z,12.02
2023-01-27T18:05:29.847Z,15.90
2023-01-27T18:07:56.713Z,16.15
2023-01-27T18:10:45.058Z,17.75
2023-01-27T18:13:17.979Z,16.83
2023-01-27T18:18:34.517Z,16.30
2023-01-27T18:21:01.327Z,16.77
2023-01-27T18:23:32.715Z,17.17
2023-01-27T18:26:37.998Z,17.55
2023-01-27T18:29:26.323Z,18.85
2023-01-27T18:32:08.056Z,47.45
2023-01-27T18:34:50.687Z,33.80
2023-01-27T18:37:27.657Z,16.65
2023-01-27T18:39:57.048Z,19.35
2023-01-27T18:42:25.724Z,18.33
2023-01-27T18:44:53.253Z,16.23
2023-01-27T18:47:20.035Z,19.08
2023-01-27T18:49:58.198Z,18.73
2023-01-27T18:52:25.078Z,15.52
2023-01-27T18:55:17.474Z,17.33
2023-01-27T18:57:47.001Z,12.25
2023-01-27T19:00:20.560Z,15.73
2023-01-27T19:02:51.499Z,16.05
2023-01-27T19:05:27.149Z,16.13
2023-01-27T19:07:54.015Z,15.02
2023-01-27T19:10:25.078Z,14.05
2023-01-27T19:12:53.065Z,15.27
2023-01-27T19:15:23.890Z,14.00
2023-01-27T19:17:53.971Z,12.50
2023-01-27T19:20:25.767Z,14.43
2023-01-27T19:22:54.154Z,14.88
2023-01-27T19:25:22.333Z,15.10
2023-01-27T19:27:54.639Z,15.70
2023-01-27T19:30:37.164Z,10.43
2023-01-27T19:33:18.217Z,14.63
2023-01-27T19:35:55.900Z,12.75
2023-01-27T19:38:26.053Z,13.13
2023-01-27T19:40:53.079Z,11.00
2023-01-27T19:43:19.917Z,10.57
2023-01-27T19:45:48.950Z,10.90
2023-01-27T19:48:22.579Z,10.15
2023-01-27T19:50:51.083Z,10.63
2023-01-27T19:53:20.017Z,10.82
2023-01-27T19:55:47.954Z,11.63
2023-01-27T19:58:25.382Z,10.75
2023-01-27T20:00:53.580Z,10.10
2023-01-27T20:03:21.070Z,11.55
2023-01-27T20:05:47.830Z,11.05
2023-01-27T20:08:20.286Z,10.25
2023-01-27T20:10:47.708Z,11.10
2023-01-27T20:13:18.898Z,10.50
2023-01-27T20:15:46.975Z,11.38
2023-01-27T20:18:16.405Z,11.07
2023-01-27T20:20:44.474Z,12.25
2023-01-27T20:23:15.700Z,14.57
2023-01-27T20:25:42.823Z,12.38
2023-01-27T20:28:10.597Z,12.40
2023-01-27T20:30:38.679Z,12.85
2023-01-27T20:33:05.551Z,12.27
2023-01-27T20:35:32.404Z,11.70
2023-01-27T20:37:59.253Z,13.18
2023-01-27T20:40:30.126Z,14.18
2023-01-27T20:42:56.905Z,12.38
2023-01-27T20:45:23.737Z,11.52
2023-01-27T20:47:53.440Z,12.43
2023-01-27T20:50:22.303Z,12.07
2023-01-27T20:52:50.303Z,11.82
2023-01-27T20:55:19.411Z,12.32
2023-01-27T20:57:47.509Z,13.65
2023-01-27T21:00:19.996Z,13.60
2023-01-27T21:02:47.516Z,14.20
2023-01-27T21:05:15.193Z,13.10
2023-01-27T21:07:42.240Z,20.60
2023-01-27T21:10:09.983Z,45.00
2023-01-27T21:12:36.811Z,16.45
2023-01-27T21:15:09.366Z,11.82
2023-01-27T21:17:36.176Z,12.55
2023-01-27T21:20:04.379Z,13.20
2023-01-27T21:22:31.238Z,12.25
2023-01-27T21:24:58.068Z,12.57
2023-01-27T21:27:24.878Z,12.38
2023-01-27T21:29:52.785Z,12.07
2023-01-27T21:32:19.607Z,12.73
2023-01-27T21:34:46.372Z,13.05
2023-01-27T21:37:13.154Z,13.63
2023-01-27T21:39:39.955Z,13.35
2023-01-27T21:42:06.767Z,13.82
2023-01-27T21:44:51.966Z,14.25
2023-01-27T21:47:19.547Z,23.80
2023-01-27T21:50:02.890Z,16.08
2023-01-27T21:52:38.951Z,22.25
2023-01-27T21:55:19.976Z,17.98
2023-01-27T21:57:50.960Z,17.80
2023-01-27T22:00:28.941Z,14.55
2023-01-27T22:03:01.695Z,12.63
2023-01-27T22:05:30.947Z,12.45
2023-01-27T22:07:58.889Z,16.88
2023-01-27T22:10:29.344Z,13.05
2023-01-27T22:13:04.012Z,13.27
2023-01-27T22:15:31.899Z,14.55
2023-01-27T22:17:59.653Z,14.23
2023-01-27T22:20:27.811Z,13.25
2023-01-27T22:22:55.143Z,12.82
2023-01-27T22:25:22.493Z,13.65
2023-01-27T22:27:49.319Z,13.20
2023-01-27T22:30:19.632Z,13.15
2023-01-27T22:32:47.945Z,12.70
2023-01-27T22:35:16.912Z,14.15
2023-01-27T22:37:44.740Z,12.93
2023-01-27T22:40:13.013Z,12.52
2023-01-27T22:42:40.139Z,12.85
2023-01-27T22:45:10.896Z,12.65
2023-01-27T22:47:37.817Z,13.18
2023-01-27T22:50:06.216Z,15.15
2023-01-27T22:52:38.716Z,14.43
2023-01-27T22:55:07.549Z,16.77
2023-01-27T22:57:34.642Z,13.75
2023-01-27T23:00:01.813Z,13.23
2023-01-27T23:02:29.788Z,13.25
2023-01-27T23:04:57.934Z,14.52
2023-01-27T23:07:25.611Z,12.77
2023-01-27T23:09:52.454Z,13.73
2023-01-27T23:12:19.212Z,13.52
2023-01-27T23:14:45.998Z,13.57
2023-01-27T23:17:12.785Z,11.68
2023-01-27T23:19:39.557Z,12.32
2023-01-27T23:22:06.380Z,11.38
2023-01-27T23:24:33.578Z,11.45
2023-01-27T23:27:00.354Z,11.52
2023-01-27T23:29:29.234Z,10.25
2023-01-27T23:31:56.320Z,11.10
2023-01-27T23:34:23.519Z,10.70
2023-01-27T23:36:50.321Z,10.43
2023-01-27T23:39:17.134Z,10.52
2023-01-27T23:41:43.920Z,10.07
2023-01-27T23:44:12.456Z,10.85
2023-01-27T23:46:39.488Z,10.68
2023-01-27T23:49:07.710Z,16.98
2023-01-27T23:51:34.535Z,12.27
2023-01-27T23:54:01.973Z,12.18
2023-01-27T23:56:29.040Z,10.40
2023-01-27T23:58:55.797Z,10.05
